Terminal Aerodrome Forecast
Issued by NWS

Home | Current Version | Previous Version | Graphics & Text | Print | Product List | Glossary Off
Versions: 1 2 3 4 5 6 7 8 9 10 11 12 13 14 15 16 17 18 19 20 21 22 23 24 25

369
FTUS43 KDDC 211732 AAB
TAFHYS
TAF AMD
KHYS 211732Z 2118/2218 07014G22KT P6SM -SHRA OVC050
     FM212000 06013KT P6SM -SHRA OVC025
     FM212300 03010KT 2SM BR VCSH OVC015
     FM220800 35011KT P6SM BKN020
     FM221000 36011KT P6SM BKN035=

USA.gov is the U.S. government's official web portal to all federal, state and local government web resources and services.